Time;durP1;ratioP1;P1;durP2;ratioP2;P2;SDS_P1;SDS_P2;PMS_P1;PMS_P2;Temp;Humidity;BMP_temperature;BMP_pressure;BME280_temperature;BME280_humidity;BME280_pressure;Samples;Min_cycle;Max_cycle;Signal;HPM_P1;HPM_P2
2021/12/20 00:00:57;;;;;;;166.25;22.60;;;1.80;99.90;;;;;;5008553;28;20897;-73
2021/12/20 00:03:23;;;;;;;176.60;23.52;;;1.90;99.90;;;;;;5018953;28;20130;-72
2021/12/20 00:05:49;;;;;;;149.15;21.77;;;1.90;99.90;;;;;;5012475;28;20101;-74
2021/12/20 00:08:14;;;;;;;159.23;23.77;;;1.90;99.90;;;;;;5012191;28;20458;-73
2021/12/20 00:10:40;;;;;;;158.85;22.10;;;1.90;99.90;;;;;;5019265;28;20108;-67
2021/12/20 00:13:06;;;;;;;186.05;21.35;;;1.90;99.90;;;;;;5022309;28;20061;-74
2021/12/20 00:15:31;;;;;;;194.88;23.95;;;1.80;99.90;;;;;;5013382;28;20046;-72
2021/12/20 00:17:57;;;;;;;192.95;23.67;;;1.80;99.90;;;;;;5012394;28;20057;-73
2021/12/20 00:20:23;;;;;;;206.23;24.58;;;1.80;99.90;;;;;;5017878;28;20030;-71
2021/12/20 00:22:49;;;;;;;193.75;23.95;;;1.80;99.90;;;;;;5012969;28;20057;-73
2021/12/20 00:25:14;;;;;;;161.82;23.05;;;1.80;99.90;;;;;;5023550;28;20080;-74
2021/12/20 00:27:40;;;;;;;165.80;22.85;;;1.90;99.90;;;;;;5016186;28;20053;-66
2021/12/20 00:30:08;;;;;;;138.85;22.25;;;1.90;99.90;;;;;;5013484;28;20706;-74
2021/12/20 00:32:34;;;;;;;152.20;21.98;;;1.90;99.90;;;;;;5011976;28;20034;-74
2021/12/20 00:34:59;;;;;;;127.72;21.48;;;1.90;99.90;;;;;;5011748;28;20030;-74
2021/12/20 00:40:26;;;;;;;153.82;22.80;;;1.90;99.90;;;;;;5010096;28;20045;-73
2021/12/20 00:42:55;;;;;;;115.57;21.30;;;1.90;99.90;;;;;;4996143;28;20037;-73
2021/12/20 00:45:22;;;;;;;209.23;26.63;;;1.90;99.90;;;;;;4997870;28;20451;-73
2021/12/20 00:47:48;;;;;;;160.50;22.15;;;2.00;99.90;;;;;;5017530;28;20029;-73
2021/12/20 00:50:16;;;;;;;163.50;22.77;;;1.90;99.90;;;;;;5019590;28;20076;-74
2021/12/20 00:52:43;;;;;;;150.90;21.65;;;1.90;99.90;;;;;;5010545;28;20038;-66
2021/12/20 00:55:09;;;;;;;202.05;25.25;;;1.90;99.90;;;;;;5011023;28;20533;-74
2021/12/20 00:57:35;;;;;;;151.73;23.05;;;1.90;99.90;;;;;;5020412;28;20029;-73
2021/12/20 01:00:01;;;;;;;172.07;22.67;;;1.90;99.90;;;;;;5021190;28;20192;-74
2021/12/20 01:02:26;;;;;;;224.23;25.20;;;2.00;99.90;;;;;;5011236;28;20026;-74
2021/12/20 01:04:52;;;;;;;140.75;22.48;;;2.00;99.90;;;;;;5003729;28;20687;-73
2021/12/20 01:07:18;;;;;;;118.13;22.13;;;1.90;99.90;;;;;;5008882;28;20038;-74
2021/12/20 01:09:43;;;;;;;191.02;21.88;;;2.00;99.90;;;;;;5012261;28;20125;-67
2021/12/20 01:12:16;;;;;;;158.25;22.75;;;2.00;99.90;;;;;;5011709;28;20065;-73
2021/12/20 01:14:43;;;;;;;167.77;21.85;;;2.00;99.90;;;;;;5013633;28;20482;-67
2021/12/20 01:17:09;;;;;;;276.40;28.83;;;2.00;99.90;;;;;;5011648;28;20026;-73
2021/12/20 01:19:36;;;;;;;263.95;27.65;;;2.00;99.90;;;;;;5009807;28;20467;-74
2021/12/20 01:22:04;;;;;;;290.13;25.98;;;2.00;99.90;;;;;;5021432;28;20104;-73
2021/12/20 01:24:29;;;;;;;192.95;23.02;;;2.00;99.90;;;;;;5012163;28;20383;-74
2021/12/20 01:26:55;;;;;;;193.00;22.48;;;2.00;99.90;;;;;;5010702;28;20054;-74
2021/12/20 01:29:21;;;;;;;198.80;23.08;;;2.00;99.90;;;;;;5010446;28;20030;-74
2021/12/20 01:31:47;;;;;;;164.85;21.10;;;1.90;99.90;;;;;;5011235;28;20030;-74
2021/12/20 01:34:13;;;;;;;132.50;21.00;;;1.90;99.90;;;;;;5015686;28;20094;-70
2021/12/20 01:36:39;;;;;;;184.88;23.85;;;2.00;99.90;;;;;;5029181;28;20453;-73
2021/12/20 01:39:05;;;;;;;172.55;21.00;;;1.90;99.90;;;;;;5010571;28;20100;-73
2021/12/20 01:41:31;;;;;;;244.15;25.38;;;2.00;99.90;;;;;;5010901;28;20041;-74
2021/12/20 01:43:57;;;;;;;286.17;26.77;;;2.00;99.90;;;;;;5009947;28;20088;-73
2021/12/20 01:46:24;;;;;;;416.95;31.50;;;2.00;99.90;;;;;;5011613;28;20037;-70
2021/12/20 01:48:50;;;;;;;547.78;37.17;;;2.00;99.90;;;;;;5023756;28;20491;-74
2021/12/20 01:53:44;;;;;;;543.53;34.53;;;2.00;99.90;;;;;;5013229;28;20117;-69
2021/12/20 01:56:10;;;;;;;448.92;31.40;;;2.00;99.90;;;;;;5010888;28;20105;-75
2021/12/20 01:58:36;;;;;;;487.08;32.65;;;2.10;99.90;;;;;;5011087;28;20034;-74
2021/12/20 02:03:34;;;;;;;;;;;2.00;99.90;;;;;;5018189;28;20069;-70
2021/12/20 02:06:07;;;;;;;480.17;32.95;;;2.00;99.90;;;;;;5026818;28;19908;-74
2021/12/20 02:08:33;;;;;;;526.75;35.67;;;2.00;99.90;;;;;;5010667;28;20041;-72
2021/12/20 02:11:03;;;;;;;619.95;38.40;;;2.00;99.90;;;;;;4992670;28;20041;-74
2021/12/20 02:13:30;;;;;;;437.77;32.08;;;2.00;99.90;;;;;;5010912;28;20038;-74
2021/12/20 02:15:59;;;;;;;384.55;29.60;;;2.00;99.90;;;;;;5009927;28;20061;-74
2021/12/20 02:18:26;;;;;;;590.30;37.83;;;2.10;99.90;;;;;;5011186;28;20132;-74
2021/12/20 02:20:52;;;;;;;561.03;35.17;;;2.00;99.90;;;;;;5014180;28;20103;-73
2021/12/20 02:23:18;;;;;;;508.55;34.17;;;2.00;99.90;;;;;;5011471;28;20026;-72
2021/12/20 02:25:44;;;;;;;555.90;37.95;;;2.00;99.90;;;;;;5011180;28;20026;-74
2021/12/20 02:28:15;;;;;;;520.78;34.00;;;1.90;99.90;;;;;;5012929;28;20108;-74
2021/12/20 02:38:46;;;;;;;508.00;34.58;;;1.90;99.90;;;;;;5015613;28;20055;-73
2021/12/20 02:41:26;;;;;;;474.50;35.35;;;1.90;99.90;;;;;;5018634;28;20041;-74
2021/12/20 02:44:00;;;;;;;433.38;32.20;;;1.90;99.90;;;;;;5010070;28;20037;-73
2021/12/20 02:48:55;;;;;;;469.05;30.08;;;2.00;99.90;;;;;;5009225;28;20088;-74
2021/12/20 02:51:24;;;;;;;422.17;32.10;;;2.00;99.90;;;;;;5008628;28;20113;-74
2021/12/20 02:53:51;;;;;;;216.18;23.10;;;2.00;99.90;;;;;;5003812;28;20450;-68
2021/12/20 02:56:17;;;;;;;349.80;25.45;;;2.00;99.90;;;;;;5005164;28;20044;-73
2021/12/20 02:58:42;;;;;;;377.90;28.60;;;2.00;99.90;;;;;;5010018;28;20434;-74
2021/12/20 03:01:08;;;;;;;205.80;23.02;;;2.10;99.90;;;;;;5009114;28;20733;-74
2021/12/20 03:03:34;;;;;;;316.52;25.25;;;2.10;99.90;;;;;;5009983;28;20384;-74
2021/12/20 03:06:20;;;;;;;178.02;21.58;;;2.10;99.90;;;;;;5009040;28;20471;-74
2021/12/20 03:08:50;;;;;;;616.90;36.90;;;2.10;99.90;;;;;;5009507;28;20368;-74
2021/12/20 03:11:17;;;;;;;339.90;26.55;;;2.10;99.90;;;;;;5008322;28;20022;-74
2021/12/20 03:13:45;;;;;;;406.63;28.52;;;2.10;99.90;;;;;;5008562;28;20038;-74
2021/12/20 03:16:11;;;;;;;340.60;26.02;;;2.20;99.90;;;;;;5009107;28;20056;-74
2021/12/20 03:18:36;;;;;;;128.43;19.75;;;2.10;99.90;;;;;;5009690;28;20088;-72
2021/12/20 03:21:02;;;;;;;448.88;27.15;;;2.10;99.90;;;;;;5005071;28;20038;-72
2021/12/20 03:23:28;;;;;;;200.38;24.13;;;2.10;99.90;;;;;;5009733;28;20030;-72
2021/12/20 03:25:53;;;;;;;230.88;23.65;;;2.20;99.90;;;;;;5008360;28;20041;-73
2021/12/20 03:28:19;;;;;;;545.45;32.58;;;2.20;99.90;;;;;;5007991;28;20054;-74
2021/12/20 03:30:45;;;;;;;500.80;29.90;;;2.20;99.90;;;;;;5008981;28;20026;-73
2021/12/20 03:33:11;;;;;;;619.50;38.47;;;2.20;99.90;;;;;;5008901;28;20106;-74
2021/12/20 03:35:37;;;;;;;665.60;38.08;;;2.20;99.90;;;;;;5009595;28;20501;-74
2021/12/20 03:38:03;;;;;;;572.88;34.92;;;2.20;99.90;;;;;;5008469;28;20038;-74
2021/12/20 03:40:28;;;;;;;378.95;27.63;;;2.20;99.90;;;;;;4991834;28;20049;-73
2021/12/20 03:42:54;;;;;;;98.85;17.90;;;2.20;99.90;;;;;;4989546;28;20026;-74
2021/12/20 03:45:20;;;;;;;85.20;17.23;;;2.20;99.90;;;;;;5006894;28;20036;-74
2021/12/20 03:47:46;;;;;;;134.48;20.15;;;2.20;99.90;;;;;;5008111;28;20455;-74
2021/12/20 03:50:13;;;;;;;116.25;18.63;;;2.30;99.90;;;;;;5008107;28;20083;-73
2021/12/20 03:52:38;;;;;;;319.80;26.13;;;2.30;99.90;;;;;;5009398;28;20049;-74
2021/12/20 03:55:06;;;;;;;491.75;31.13;;;2.30;99.90;;;;;;4993587;28;20026;-73
2021/12/20 03:57:32;;;;;;;486.33;30.58;;;2.30;99.90;;;;;;5040013;28;20049;-73
2021/12/20 03:59:58;;;;;;;435.85;28.13;;;2.30;99.90;;;;;;5007039;28;20045;-74
2021/12/20 04:02:25;;;;;;;498.92;31.27;;;2.30;99.90;;;;;;5008441;28;20056;-73
2021/12/20 04:04:50;;;;;;;695.35;38.22;;;2.20;99.90;;;;;;5009169;28;20463;-67
2021/12/20 04:07:16;;;;;;;544.78;32.95;;;2.20;99.90;;;;;;5008150;28;20041;-74
2021/12/20 04:09:42;;;;;;;493.98;31.33;;;2.30;99.90;;;;;;5013243;28;20568;-73
2021/12/20 04:12:09;;;;;;;479.10;29.33;;;2.30;99.90;;;;;;5019555;28;20390;-71
2021/12/20 04:14:34;;;;;;;529.15;34.33;;;2.30;99.90;;;;;;4999664;28;20470;-73
2021/12/20 04:17:00;;;;;;;643.25;37.70;;;2.20;99.90;;;;;;5010591;28;20038;-74
2021/12/20 04:19:25;;;;;;;572.90;34.10;;;2.20;99.90;;;;;;5024080;28;20038;-74
2021/12/20 04:21:51;;;;;;;618.15;37.40;;;2.20;99.90;;;;;;4987768;28;20034;-69
2021/12/20 04:24:17;;;;;;;723.95;43.75;;;2.20;99.90;;;;;;5005996;28;20053;-74
2021/12/20 04:26:42;;;;;;;578.67;37.20;;;2.30;99.90;;;;;;5005900;28;20078;-73
2021/12/20 04:29:09;;;;;;;637.17;40.65;;;2.20;99.90;;;;;;5009454;28;20048;-73
2021/12/20 04:31:36;;;;;;;599.55;35.97;;;2.20;99.90;;;;;;5007805;28;20066;-73
2021/12/20 04:34:02;;;;;;;454.23;32.97;;;2.20;99.90;;;;;;5005883;28;20040;-73
2021/12/20 04:36:29;;;;;;;545.50;37.90;;;2.20;99.90;;;;;;5009573;28;20501;-71
2021/12/20 04:38:55;;;;;;;509.85;35.53;;;2.20;99.90;;;;;;5009347;28;20041;-68
2021/12/20 04:41:21;;;;;;;487.23;32.85;;;2.20;99.90;;;;;;5010735;28;20034;-74
2021/12/20 04:43:47;;;;;;;682.88;44.83;;;2.20;99.90;;;;;;5008509;28;20029;-73
2021/12/20 04:46:12;;;;;;;494.65;36.10;;;2.20;99.90;;;;;;5007658;28;20036;-73
2021/12/20 04:48:38;;;;;;;565.65;35.88;;;2.20;99.90;;;;;;5005772;28;20390;-73
2021/12/20 04:51:04;;;;;;;490.23;34.55;;;2.20;99.90;;;;;;5009726;28;20434;-73
2021/12/20 04:53:30;;;;;;;621.13;41.88;;;2.20;99.90;;;;;;5011330;28;20037;-74
2021/12/20 04:55:56;;;;;;;562.72;36.70;;;2.20;99.90;;;;;;5012008;28;20505;-67
2021/12/20 04:58:21;;;;;;;429.13;33.60;;;2.20;99.90;;;;;;5012361;28;20034;-71
2021/12/20 05:00:47;;;;;;;283.58;28.15;;;2.20;99.90;;;;;;5010213;28;20360;-70
2021/12/20 05:03:13;;;;;;;460.27;35.05;;;2.20;99.90;;;;;;5016513;28;20022;-70
2021/12/20 05:05:39;;;;;;;479.42;33.17;;;2.20;99.90;;;;;;5011941;28;20128;-72
2021/12/20 05:08:05;;;;;;;335.05;28.33;;;2.20;99.90;;;;;;5020351;28;20037;-72
2021/12/20 05:10:34;;;;;;;470.75;32.83;;;2.20;99.90;;;;;;5015887;28;20398;-73
2021/12/20 05:13:05;;;;;;;502.90;35.60;;;2.20;99.90;;;;;;5010593;28;20018;-71
2021/12/20 05:15:32;;;;;;;539.08;34.88;;;2.20;99.90;;;;;;5018470;28;20062;-72
2021/12/20 05:17:58;;;;;;;421.75;31.08;;;2.20;99.90;;;;;;5018720;28;20125;-67
2021/12/20 05:20:26;;;;;;;586.22;36.47;;;2.20;99.90;;;;;;5010237;28;20041;-73
2021/12/20 05:22:52;;;;;;;514.90;38.65;;;2.30;99.90;;;;;;5011791;28;20168;-70
2021/12/20 05:25:18;;;;;;;612.90;41.38;;;2.30;99.90;;;;;;5008469;28;20566;-71
2021/12/20 05:27:44;;;;;;;543.67;37.30;;;2.20;99.90;;;;;;5007348;28;20058;-75
2021/12/20 05:30:11;;;;;;;563.72;36.75;;;2.30;99.90;;;;;;5012503;28;20130;-70
2021/12/20 05:32:37;;;;;;;521.15;36.28;;;2.30;99.90;;;;;;5031716;28;20043;-69
2021/12/20 05:35:08;;;;;;;372.38;33.63;;;2.30;99.90;;;;;;5018839;28;20116;-72
2021/12/20 05:37:34;;;;;;;501.40;37.50;;;2.20;99.90;;;;;;5011803;28;20367;-70
2021/12/20 05:40:00;;;;;;;622.60;40.63;;;2.30;99.90;;;;;;5011759;28;20030;-65
2021/12/20 05:42:26;;;;;;;577.13;39.80;;;2.30;99.90;;;;;;5011310;28;20038;-72
2021/12/20 05:44:52;;;;;;;481.23;36.70;;;2.20;99.90;;;;;;5011294;28;20107;-70
2021/12/20 05:47:22;;;;;;;598.78;39.13;;;2.30;99.90;;;;;;5011129;28;20152;-73
2021/12/20 05:49:52;;;;;;;524.83;38.60;;;2.30;99.90;;;;;;5011957;28;20475;-71
2021/12/20 05:52:18;;;;;;;436.45;35.47;;;2.20;99.90;;;;;;5010751;28;20037;-70
2021/12/20 05:54:45;;;;;;;379.83;30.95;;;2.20;99.90;;;;;;5015712;28;20105;-73
2021/12/20 05:57:11;;;;;;;356.85;32.70;;;2.20;99.90;;;;;;5010394;28;20114;-73
2021/12/20 05:59:36;;;;;;;581.92;39.47;;;2.20;99.90;;;;;;5011590;28;20076;-73
2021/12/20 06:02:02;;;;;;;381.25;34.38;;;2.20;99.90;;;;;;5043927;28;20065;-69
2021/12/20 06:04:28;;;;;;;355.90;32.35;;;2.20;99.90;;;;;;5013177;28;20025;-69
2021/12/20 06:06:54;;;;;;;545.15;37.25;;;2.20;99.90;;;;;;4998239;28;20715;-69
2021/12/20 06:09:19;;;;;;;531.17;38.85;;;2.20;99.90;;;;;;5003358;28;20044;-70
2021/12/20 06:11:45;;;;;;;507.33;37.03;;;2.20;99.90;;;;;;5008872;28;20030;-70
2021/12/20 06:14:11;;;;;;;400.38;34.00;;;2.20;99.90;;;;;;5030629;28;20048;-71
2021/12/20 06:16:36;;;;;;;491.73;37.72;;;2.20;99.90;;;;;;5016085;28;20029;-73
2021/12/20 06:19:03;;;;;;;478.35;37.20;;;2.20;99.90;;;;;;5017726;28;20093;-70
2021/12/20 06:21:29;;;;;;;562.47;40.50;;;2.20;99.90;;;;;;5009646;28;20096;-71
2021/12/20 06:23:55;;;;;;;464.33;37.45;;;2.30;99.90;;;;;;5009592;28;20467;-69
2021/12/20 06:26:23;;;;;;;455.70;37.80;;;2.30;99.90;;;;;;5009140;28;20065;-70
2021/12/20 06:28:50;;;;;;;416.08;37.30;;;2.30;99.90;;;;;;5010532;28;20137;-70
2021/12/20 06:31:16;;;;;;;489.33;40.30;;;2.30;99.90;;;;;;5017975;28;20029;-71
2021/12/20 06:33:42;;;;;;;510.75;39.78;;;2.30;99.90;;;;;;5010038;28;20096;-73
2021/12/20 06:36:07;;;;;;;333.73;31.33;;;2.30;99.90;;;;;;5024263;28;20422;-69
2021/12/20 06:38:35;;;;;;;263.08;29.27;;;2.30;99.90;;;;;;5011634;28;20056;-72
2021/12/20 06:41:01;;;;;;;404.15;36.60;;;2.30;99.90;;;;;;5009216;28;20034;-67
2021/12/20 06:43:26;;;;;;;327.67;32.88;;;2.30;99.90;;;;;;5009548;28;20025;-73
2021/12/20 06:45:52;;;;;;;364.13;33.28;;;2.30;99.90;;;;;;5013154;28;20479;-73
2021/12/20 06:48:18;;;;;;;266.30;29.95;;;2.20;99.90;;;;;;5016559;28;20129;-69
2021/12/20 06:50:44;;;;;;;297.27;31.60;;;2.30;99.90;;;;;;5008847;28;20441;-75
2021/12/20 06:53:09;;;;;;;230.48;28.58;;;2.30;99.90;;;;;;5019102;28;20402;-75
2021/12/20 06:55:36;;;;;;;266.23;31.55;;;2.30;99.90;;;;;;5017837;28;20030;-75
2021/12/20 06:58:03;;;;;;;171.07;25.05;;;2.30;99.90;;;;;;5000869;28;20057;-69
2021/12/20 07:00:29;;;;;;;196.10;26.98;;;2.30;99.90;;;;;;5011979;28;20033;-71
2021/12/20 07:02:55;;;;;;;210.90;27.80;;;2.30;99.90;;;;;;5006548;28;20087;-74
2021/12/20 07:05:21;;;;;;;280.10;30.60;;;2.30;99.90;;;;;;5009292;28;20030;-72
2021/12/20 07:07:47;;;;;;;227.82;28.92;;;2.30;99.90;;;;;;5010438;28;20104;-74
2021/12/20 07:10:12;;;;;;;155.75;24.08;;;2.40;99.90;;;;;;5009354;28;20033;-72
2021/12/20 07:12:38;;;;;;;260.55;29.02;;;2.30;99.90;;;;;;5013124;28;20060;-71
2021/12/20 07:15:06;;;;;;;222.70;28.35;;;2.30;99.90;;;;;;5008762;28;20398;-69
2021/12/20 07:17:31;;;;;;;235.98;29.17;;;2.40;99.90;;;;;;5010239;28;20029;-77
2021/12/20 07:20:00;;;;;;;184.68;26.02;;;2.30;99.90;;;;;;5020778;28;20033;-75
2021/12/20 07:22:26;;;;;;;175.23;25.10;;;2.30;99.90;;;;;;5026399;28;20033;-74
2021/12/20 07:24:52;;;;;;;125.43;23.70;;;2.30;99.90;;;;;;5009692;28;20048;-73
2021/12/20 07:27:19;;;;;;;206.02;26.67;;;2.30;99.90;;;;;;5008951;28;20056;-76
2021/12/20 07:29:45;;;;;;;191.95;25.27;;;2.30;99.90;;;;;;5009529;28;20034;-78
2021/12/20 07:32:11;;;;;;;161.27;24.08;;;2.30;99.90;;;;;;5027379;28;20083;-77
2021/12/20 07:34:38;;;;;;;290.30;29.27;;;2.30;99.90;;;;;;5029338;28;20037;-76
2021/12/20 07:37:04;;;;;;;211.45;26.27;;;2.30;99.90;;;;;;5029433;28;20037;-70
2021/12/20 07:39:30;;;;;;;252.35;27.17;;;2.40;99.90;;;;;;5029166;28;20029;-72
2021/12/20 07:41:56;;;;;;;318.95;29.38;;;2.40;99.90;;;;;;5029432;28;20489;-74
2021/12/20 07:44:23;;;;;;;258.27;27.08;;;2.40;99.90;;;;;;5013542;28;20251;-72
2021/12/20 07:46:49;;;;;;;232.55;25.63;;;2.40;99.90;;;;;;5025951;28;20037;-72
2021/12/20 07:49:15;;;;;;;382.65;32.38;;;2.40;99.90;;;;;;5027542;28;20021;-72
2021/12/20 07:51:41;;;;;;;266.67;27.15;;;2.40;99.90;;;;;;5010225;28;20034;-75
2021/12/20 07:54:07;;;;;;;316.08;26.88;;;2.40;99.90;;;;;;5007930;28;20030;-69
2021/12/20 07:56:33;;;;;;;193.20;23.73;;;2.40;99.90;;;;;;5007624;28;20044;-73
2021/12/20 07:58:58;;;;;;;230.57;27.27;;;2.40;99.90;;;;;;5020946;28;20470;-76
2021/12/20 08:01:24;;;;;;;201.70;27.33;;;2.40;99.90;;;;;;5011674;28;20498;-75
2021/12/20 08:03:50;;;;;;;221.38;26.05;;;2.40;99.90;;;;;;5007421;28;20029;-71
2021/12/20 08:06:16;;;;;;;231.45;25.67;;;2.40;99.90;;;;;;5009908;28;20033;-71
2021/12/20 08:08:41;;;;;;;342.30;30.55;;;2.40;99.90;;;;;;5007980;28;20037;-77
2021/12/20 08:11:07;;;;;;;260.20;25.90;;;2.40;99.90;;;;;;5006291;28;20026;-71
2021/12/20 08:13:33;;;;;;;242.90;26.05;;;2.40;99.90;;;;;;5008907;28;20227;-70
2021/12/20 08:15:59;;;;;;;255.98;27.92;;;2.50;99.90;;;;;;5007607;28;20509;-74
2021/12/20 08:18:25;;;;;;;221.20;28.98;;;2.50;99.90;;;;;;5022188;28;20038;-72
2021/12/20 08:20:51;;;;;;;213.80;26.50;;;2.50;99.90;;;;;;5026961;28;20033;-71
2021/12/20 08:23:17;;;;;;;138.77;24.00;;;2.50;99.90;;;;;;5026496;28;20371;-73
2021/12/20 08:25:44;;;;;;;132.02;23.63;;;2.50;99.90;;;;;;5031953;28;20041;-72
2021/12/20 08:28:10;;;;;;;150.15;24.55;;;2.50;99.90;;;;;;5026272;28;20049;-71
2021/12/20 08:30:36;;;;;;;133.07;23.33;;;2.60;99.90;;;;;;5012119;28;20092;-73
2021/12/20 08:33:02;;;;;;;122.70;22.98;;;2.60;99.90;;;;;;5020797;28;20030;-73
2021/12/20 08:35:28;;;;;;;108.10;22.67;;;2.60;99.90;;;;;;5011928;28;20022;-74
2021/12/20 08:37:53;;;;;;;102.97;20.92;;;2.60;99.90;;;;;;5027592;28;20482;-72
2021/12/20 08:40:21;;;;;;;91.28;21.30;;;2.60;99.90;;;;;;5031837;28;20371;-73
2021/12/20 08:42:48;;;;;;;91.72;20.23;;;2.60;99.90;;;;;;5032459;28;20026;-72
2021/12/20 08:45:15;;;;;;;89.65;20.15;;;2.70;99.90;;;;;;5023661;28;20026;-76
2021/12/20 08:47:41;;;;;;;83.72;20.10;;;2.80;99.90;;;;;;5010947;28;20029;-74
2021/12/20 08:50:12;;;;;;;88.30;20.52;;;2.80;99.90;;;;;;5017913;28;20406;-69
2021/12/20 08:52:37;;;;;;;90.10;21.63;;;2.80;99.90;;;;;;5021736;28;20034;-74
2021/12/20 08:55:05;;;;;;;81.00;17.85;;;2.90;99.90;;;;;;5026615;28;20393;-75
2021/12/20 08:57:31;;;;;;;95.22;21.38;;;2.90;99.90;;;;;;5015816;28;20395;-74
2021/12/20 08:59:56;;;;;;;83.72;20.02;;;2.90;99.90;;;;;;5012063;28;20065;-74
2021/12/20 09:02:22;;;;;;;82.32;20.00;;;2.90;99.90;;;;;;5014793;28;20383;-73
2021/12/20 09:04:48;;;;;;;75.38;20.00;;;3.00;99.90;;;;;;5009162;28;20032;-74
2021/12/20 09:07:16;;;;;;;76.03;20.02;;;3.00;99.90;;;;;;5011866;28;20025;-76
2021/12/20 09:09:47;;;;;;;74.13;18.63;;;3.00;99.90;;;;;;5012149;28;20409;-76
2021/12/20 09:12:18;;;;;;;75.57;19.50;;;3.10;99.90;;;;;;5005681;28;20026;-71
2021/12/20 09:14:45;;;;;;;89.53;24.48;;;3.20;99.90;;;;;;4996407;28;20041;-72
2021/12/20 09:17:11;;;;;;;110.57;37.85;;;3.30;99.90;;;;;;5002455;28;20089;-71
2021/12/20 09:19:37;;;;;;;77.90;20.88;;;3.30;99.90;;;;;;5019147;28;20041;-71
2021/12/20 09:22:06;;;;;;;80.88;20.25;;;3.40;99.90;;;;;;5011350;28;20120;-76
2021/12/20 09:24:33;;;;;;;74.50;20.20;;;3.30;99.90;;;;;;5010077;28;20285;-76
2021/12/20 09:26:59;;;;;;;68.32;18.10;;;3.40;99.90;;;;;;5012207;28;20057;-75
2021/12/20 09:29:25;;;;;;;77.35;19.35;;;3.50;99.90;;;;;;5030314;28;20063;-74
2021/12/20 09:31:50;;;;;;;73.50;19.95;;;3.60;99.90;;;;;;5023577;28;20155;-76
2021/12/20 09:34:16;;;;;;;66.65;18.23;;;3.80;99.90;;;;;;5025294;28;20143;-76
2021/12/20 09:36:42;;;;;;;70.57;18.13;;;3.90;99.90;;;;;;5011086;28;20065;-75
2021/12/20 09:39:11;;;;;;;83.53;23.73;;;4.00;99.90;;;;;;5011336;28;20033;-74
2021/12/20 09:44:10;;;;;;;66.57;20.27;;;4.10;99.90;;;;;;5011665;28;20044;-74
2021/12/20 09:46:37;;;;;;;65.85;19.70;;;4.40;99.90;;;;;;5011349;28;20049;-75
2021/12/20 09:49:04;;;;;;;60.35;19.33;;;4.40;99.90;;;;;;5012003;28;20121;-74
2021/12/20 09:51:30;;;;;;;81.95;25.58;;;4.30;99.90;;;;;;5010720;28;20117;-75
2021/12/20 09:53:56;;;;;;;57.38;17.45;;;4.40;99.90;;;;;;5011402;28;20026;-72
2021/12/20 09:56:25;;;;;;;109.90;37.03;;;4.50;99.90;;;;;;5009135;28;20177;-73
2021/12/20 09:58:57;;;;;;;92.72;29.08;;;4.40;99.90;;;;;;5011018;28;20038;-76
2021/12/20 10:01:25;;;;;;;98.78;31.15;;;4.60;99.90;;;;;;5014728;28;20377;-71
2021/12/20 10:03:53;;;;;;;55.80;16.25;;;4.70;99.90;;;;;;5017772;28;20041;-77
2021/12/20 10:06:19;;;;;;;76.15;29.65;;;4.70;99.90;;;;;;5010540;28;20025;-77
2021/12/20 10:08:53;;;;;;;36.85;11.93;;;4.90;99.90;;;;;;4998215;28;20034;-74
2021/12/20 10:11:23;;;;;;;37.30;12.35;;;5.00;99.90;;;;;;5007653;28;20087;-76
2021/12/20 10:13:50;;;;;;;31.63;9.80;;;5.10;99.90;;;;;;5002793;28;20061;-73
2021/12/20 10:16:21;;;;;;;27.10;9.85;;;5.10;99.90;;;;;;5003765;28;20152;-71
2021/12/20 10:18:48;;;;;;;40.83;12.07;;;4.90;99.90;;;;;;5010960;28;20033;-76
2021/12/20 10:21:16;;;;;;;30.73;10.02;;;5.10;99.90;;;;;;5023540;28;20099;-68
2021/12/20 10:23:44;;;;;;;36.65;12.00;;;5.20;99.90;;;;;;5018902;28;20481;-73
2021/12/20 10:26:19;;;;;;;37.53;9.80;;;5.20;99.90;;;;;;5020859;28;20032;-68
2021/12/20 10:28:52;;;;;;;36.33;11.30;;;5.40;99.90;;;;;;5010186;28;20125;-73
2021/12/20 10:31:23;;;;;;;31.85;9.70;;;5.50;99.90;;;;;;5007749;28;20026;-72
2021/12/20 10:34:06;;;;;;;29.02;10.38;;;5.60;99.90;;;;;;5018718;28;20160;-75
2021/12/20 10:36:33;;;;;;;39.85;11.30;;;5.80;99.90;;;;;;5012077;28;20116;-71
2021/12/20 10:39:00;;;;;;;39.00;10.45;;;5.90;99.90;;;;;;5023094;28;20033;-73
2021/12/20 10:41:34;;;;;;;31.83;10.00;;;6.00;99.90;;;;;;5024505;28;20474;-73
2021/12/20 10:44:14;;;;;;;27.08;9.50;;;5.90;99.90;;;;;;5024879;28;20057;-72
2021/12/20 10:46:56;;;;;;;26.95;8.82;;;5.70;99.90;;;;;;5018243;28;20033;-77
2021/12/20 10:49:26;;;;;;;40.47;10.43;;;5.50;99.90;;;;;;5029042;28;20041;-74
2021/12/20 10:51:54;;;;;;;26.05;8.75;;;5.40;99.90;;;;;;5020992;28;20037;-76
2021/12/20 10:54:22;;;;;;;27.75;9.20;;;5.10;99.90;;;;;;5017892;28;20065;-78
2021/12/20 10:57:02;;;;;;;21.20;7.47;;;4.80;99.90;;;;;;5012625;28;20038;-74
2021/12/20 10:59:32;;;;;;;22.20;7.70;;;4.40;99.90;;;;;;5002832;28;20088;-74
2021/12/20 11:03:07;;;;;;;26.67;8.55;;;4.30;99.90;;;;;;5015814;28;20041;-76
2021/12/20 11:05:01;;;;;;;23.45;6.97;;;4.20;99.90;;;;;;4990164;28;20038;-73
2021/12/20 11:10:06;;;;;;;20.77;7.05;;;4.00;99.90;;;;;;5010321;28;20072;-77
2021/12/20 11:12:33;;;;;;;24.70;6.72;;;3.90;99.90;;;;;;5022050;28;20080;-76
2021/12/20 11:15:12;;;;;;;21.05;6.40;;;3.80;99.90;;;;;;5011891;28;20378;-74
2021/12/20 11:17:45;;;;;;;21.60;6.90;;;3.70;99.90;;;;;;5008994;28;20037;-77
2021/12/20 11:20:21;;;;;;;21.58;6.75;;;3.60;99.90;;;;;;5009951;28;20022;-76
2021/12/20 11:22:47;;;;;;;20.98;6.57;;;3.60;99.90;;;;;;5023676;28;20036;-76
2021/12/20 11:25:14;;;;;;;25.55;7.30;;;3.50;99.90;;;;;;5029920;28;20037;-74
2021/12/20 11:27:43;;;;;;;23.20;7.22;;;3.60;99.90;;;;;;5018924;28;20140;-76
2021/12/20 11:30:14;;;;;;;23.50;6.97;;;3.50;99.90;;;;;;5029825;28;20048;-74
2021/12/20 11:32:41;;;;;;;19.75;6.88;;;3.50;99.90;;;;;;5024183;28;20033;-74
2021/12/20 12:20:12;;;;;;;17.23;3.65;;;7.00;99.90;;;;;;5241089;23;20410;-70
2021/12/20 12:22:40;;;;;;;21.98;8.63;;;6.70;99.90;;;;;;4945763;29;20163;-69
2021/12/20 12:25:12;;;;;;;14.25;3.92;;;6.70;99.90;;;;;;4954778;29;20566;-68
2021/12/20 12:27:41;;;;;;;8.88;3.38;;;7.10;99.90;;;;;;4954093;29;20046;-69
2021/12/20 12:30:13;;;;;;;10.13;3.95;;;7.20;99.90;;;;;;4954611;29;20554;-69
2021/12/20 12:32:58;;;;;;;7.63;3.17;;;7.20;99.90;;;;;;4953715;29;20110;-67
2021/12/20 12:35:42;;;;;;;12.25;4.40;;;7.40;99.90;;;;;;4951999;29;20035;-68
2021/12/20 12:38:28;;;;;;;12.88;5.20;;;7.80;99.90;;;;;;4954456;29;20103;-69
2021/12/20 12:41:05;;;;;;;13.48;3.10;;;8.20;99.90;;;;;;4954506;29;20035;-69
2021/12/20 12:44:15;;;;;;;10.02;3.72;;;8.40;99.90;;;;;;4953471;29;20039;-68
2021/12/20 12:46:41;;;;;;;9.02;2.65;;;8.00;99.90;;;;;;4926060;29;20050;-68
2021/12/20 12:49:19;;;;;;;8.95;2.60;;;7.90;99.90;;;;;;4954514;29;20031;-70
2021/12/20 12:51:45;;;;;;;11.15;2.40;;;7.80;99.90;;;;;;4951370;29;20031;-68
2021/12/20 12:54:40;;;;;;;10.40;2.60;;;7.60;99.90;;;;;;4935168;29;20032;-69
2021/12/20 12:57:11;;;;;;;10.55;2.90;;;7.90;99.90;;;;;;4948084;29;20106;-67
2021/12/20 12:59:37;;;;;;;10.50;2.00;;;8.10;99.90;;;;;;4953203;29;20067;-65
2021/12/20 13:02:15;;;;;;;10.45;2.35;;;8.10;99.90;;;;;;4954674;29;20070;-66
2021/12/20 13:04:47;;;;;;;9.02;2.15;;;8.40;99.90;;;;;;4949297;29;20042;-67
2021/12/20 13:07:21;;;;;;;8.38;2.55;;;8.70;99.90;;;;;;4953551;29;20122;-67
2021/12/20 13:09:49;;;;;;;7.95;2.80;;;8.90;99.90;;;;;;4952275;28;20503;-67
2021/12/20 13:12:24;;;;;;;14.90;4.32;;;8.90;99.90;;;;;;4947887;29;20023;-68
2021/12/20 13:15:06;;;;;;;6.25;2.22;;;8.90;99.90;;;;;;4953548;29;20114;-68
2021/12/20 13:17:39;;;;;;;7.63;2.03;;;8.80;99.90;;;;;;4951677;29;20039;-69
2021/12/20 13:23:15;;;;;;;7.20;2.55;;;7.30;99.90;;;;;;4931735;29;20488;-66
2021/12/20 13:25:55;;;;;;;7.38;2.20;;;6.80;99.90;;;;;;4921839;29;20067;-68
2021/12/20 13:28:39;;;;;;;8.38;1.90;;;6.50;99.90;;;;;;4915753;29;20078;-66
2021/12/20 13:31:14;;;;;;;7.03;2.10;;;6.10;99.90;;;;;;4920977;29;20384;-67
2021/12/20 13:33:46;;;;;;;7.95;2.17;;;5.90;99.90;;;;;;4933621;29;20080;-66
2021/12/20 13:36:14;;;;;;;6.18;2.40;;;5.70;99.90;;;;;;4934446;29;20040;-67
2021/12/20 13:38:45;;;;;;;10.27;2.83;;;5.50;99.90;;;;;;4933659;29;20040;-64
2021/12/20 13:41:16;;;;;;;16.25;3.80;;;5.30;99.90;;;;;;4934574;29;20107;-65
2021/12/20 13:44:00;;;;;;;8.40;2.58;;;5.10;99.90;;;;;;4933497;29;20039;-65
2021/12/20 13:46:32;;;;;;;12.20;2.70;;;5.00;99.90;;;;;;4931413;29;20492;-66
2021/12/20 13:49:04;;;;;;;11.15;3.00;;;4.90;99.90;;;;;;4934264;29;20039;-64